Time;durP1;ratioP1;P1;durP2;ratioP2;P2;SDS_P1;SDS_P2;PMS_P1;PMS_P2;Temp;Humidity;BMP_temperature;BMP_pressure;BME280_temperature;BME280_humidity;BME280_pressure;Samples;Min_cycle;Max_cycle;Signal;HPM_P1;HPM_P2
2022/09/29 00:00:06;;;;;;;4.40;3.63;;;19.20;58.00;;;;;;6018921;23;20195;-86
2022/09/29 00:02:39;;;;;;;4.10;3.70;;;19.20;58.00;;;;;;6018819;23;20195;-86
2022/09/29 00:05:22;;;;;;;4.95;3.70;;;19.20;58.00;;;;;;5995452;24;20552;-86
2022/09/29 00:07:50;;;;;;;4.20;3.38;;;19.20;58.00;;;;;;5932987;23;20159;-86
2022/09/29 00:10:22;;;;;;;4.80;3.60;;;19.20;58.00;;;;;;6023221;23;20241;-85
2022/09/29 00:12:55;;;;;;;5.97;3.67;;;19.20;58.10;;;;;;6016560;23;20154;-85
2022/09/29 00:15:22;;;;;;;4.20;3.70;;;19.30;58.10;;;;;;6023494;23;20155;-85
2022/09/29 00:17:52;;;;;;;4.40;3.47;;;19.20;58.10;;;;;;6028577;23;20586;-85
2022/09/29 00:20:32;;;;;;;4.35;3.90;;;19.20;58.10;;;;;;6028949;23;20154;-86
2022/09/29 00:23:06;;;;;;;4.88;3.55;;;19.20;58.10;;;;;;6048235;23;20151;-85
2022/09/29 00:25:36;;;;;;;3.80;3.40;;;19.20;58.10;;;;;;6057854;23;20153;-86
2022/09/29 00:28:04;;;;;;;3.40;3.10;;;19.20;58.20;;;;;;6057399;23;20185;-85
2022/09/29 00:30:36;;;;;;;3.85;3.45;;;19.20;58.20;;;;;;6057860;23;20534;-85
2022/09/29 00:33:04;;;;;;;4.32;3.50;;;19.20;58.20;;;;;;5999915;23;20206;-85
2022/09/29 00:35:30;;;;;;;3.85;3.35;;;19.20;58.20;;;;;;5974374;24;20167;-85
2022/09/29 00:37:59;;;;;;;3.80;3.40;;;19.20;58.20;;;;;;5973323;24;20154;-85
2022/09/29 00:40:29;;;;;;;3.90;3.50;;;19.20;58.20;;;;;;5997047;24;20238;-86
2022/09/29 00:42:57;;;;;;;4.43;3.45;;;19.20;58.20;;;;;;6010779;23;20228;-86
2022/09/29 00:45:27;;;;;;;4.05;3.33;;;19.20;58.20;;;;;;6011946;23;20240;-86
2022/09/29 00:48:10;;;;;;;4.07;3.25;;;19.20;58.30;;;;;;5991486;24;20160;-87
2022/09/29 00:50:41;;;;;;;4.25;3.85;;;19.20;58.30;;;;;;6019325;23;20211;-87
2022/09/29 00:53:31;;;;;;;4.30;3.55;;;19.20;58.30;;;;;;6019894;23;20235;-86
2022/09/29 00:56:01;;;;;;;4.10;3.70;;;19.20;58.30;;;;;;6025279;23;20158;-86
2022/09/29 00:58:35;;;;;;;4.85;3.63;;;19.20;58.30;;;;;;5968199;24;20247;-86
2022/09/29 01:01:11;;;;;;;4.10;3.60;;;19.20;58.40;;;;;;5936429;24;20196;-86
2022/09/29 01:04:05;;;;;;;4.07;3.13;;;19.20;58.40;;;;;;5946292;23;20153;-86
2022/09/29 01:06:45;;;;;;;3.60;3.28;;;19.20;58.40;;;;;;6046797;23;20594;-86
2022/09/29 01:09:19;;;;;;;4.18;3.40;;;19.10;58.40;;;;;;6059639;23;20161;-87
2022/09/29 01:11:53;;;;;;;4.00;3.38;;;19.20;58.40;;;;;;6034878;23;20161;-86
2022/09/29 01:14:41;;;;;;;4.68;3.60;;;19.20;58.40;;;;;;6040226;23;20156;-86
2022/09/29 01:17:11;;;;;;;3.78;3.38;;;19.20;58.50;;;;;;6108502;23;20245;-87
2022/09/29 01:20:01;;;;;;;3.88;3.47;;;19.10;58.40;;;;;;6063240;23;20195;-87
2022/09/29 01:22:54;;;;;;;4.75;3.60;;;19.20;58.50;;;;;;6086636;23;20179;-87
2022/09/29 01:25:54;;;;;;;4.68;3.67;;;19.20;58.50;;;;;;6087368;23;20155;-86
2022/09/29 01:28:33;;;;;;;4.75;3.30;;;19.10;58.50;;;;;;6115074;23;20149;-86
2022/09/29 01:31:22;;;;;;;4.97;3.53;;;19.10;58.50;;;;;;6176257;23;20164;-87
2022/09/29 01:34:09;;;;;;;4.05;3.58;;;19.20;58.50;;;;;;6192997;22;20152;-86
2022/09/29 01:36:48;;;;;;;4.38;3.60;;;19.10;58.50;;;;;;6199194;23;20158;-87
2022/09/29 01:39:34;;;;;;;3.88;3.47;;;19.10;58.50;;;;;;6150762;23;20184;-87
2022/09/29 01:42:12;;;;;;;3.60;3.30;;;19.10;58.50;;;;;;6200048;23;20478;-87
2022/09/29 01:44:45;;;;;;;3.95;3.40;;;19.10;58.60;;;;;;6151735;23;20155;-86
2022/09/29 01:47:31;;;;;;;4.68;3.40;;;19.10;59.20;;;;;;6174366;23;20147;-87
2022/09/29 01:50:06;;;;;;;3.90;3.50;;;19.20;58.70;;;;;;6110739;23;20152;-86
2022/09/29 01:52:39;;;;;;;3.80;3.40;;;19.10;58.60;;;;;;6064358;23;20663;-86
2022/09/29 01:55:12;;;;;;;4.43;3.92;;;19.10;58.70;;;;;;6039997;23;20172;-87
2022/09/29 01:58:01;;;;;;;4.53;3.60;;;19.10;58.70;;;;;;6086753;23;20212;-86
2022/09/29 02:00:30;;;;;;;4.00;3.47;;;19.10;58.70;;;;;;6066243;23;20199;-86
2022/09/29 02:03:08;;;;;;;4.13;3.47;;;19.10;58.70;;;;;;6063927;23;20157;-87
2022/09/29 02:05:43;;;;;;;4.30;3.70;;;19.10;58.70;;;;;;6063617;23;20153;-87
2022/09/29 02:08:13;;;;;;;4.45;3.50;;;19.10;58.70;;;;;;6106998;23;20198;-86
2022/09/29 02:11:16;;;;;;;4.25;3.45;;;19.10;58.80;;;;;;6119629;23;20467;-87
2022/09/29 02:14:21;;;;;;;3.70;3.40;;;19.00;58.70;;;;;;6110629;23;20220;-86
2022/09/29 02:16:56;;;;;;;4.10;3.55;;;19.10;58.70;;;;;;6086040;23;20155;-86
2022/09/29 02:19:26;;;;;;;3.95;3.53;;;19.10;58.80;;;;;;6063104;23;20235;-86
2022/09/29 02:21:58;;;;;;;4.18;3.30;;;19.10;58.80;;;;;;6100504;23;20153;-86
2022/09/29 02:24:33;;;;;;;3.30;2.90;;;19.10;58.80;;;;;;5996324;24;20187;-86
2022/09/29 02:27:12;;;;;;;4.07;3.67;;;19.10;58.80;;;;;;5972717;24;20608;-86
2022/09/29 02:29:40;;;;;;;3.80;3.40;;;19.10;58.90;;;;;;5929993;24;20155;-87
2022/09/29 02:32:09;;;;;;;3.90;3.50;;;19.00;58.90;;;;;;5940354;24;20252;-87
2022/09/29 02:34:47;;;;;;;3.65;3.35;;;19.10;58.90;;;;;;5920653;24;20173;-87
2022/09/29 02:37:45;;;;;;;3.90;3.50;;;19.10;58.90;;;;;;5842024;24;20158;-86
2022/09/29 02:40:21;;;;;;;3.83;3.47;;;19.10;58.90;;;;;;5885441;24;20180;-87
2022/09/29 02:43:12;;;;;;;4.30;3.53;;;19.10;58.90;;;;;;5858474;24;20165;-86
2022/09/29 02:46:05;;;;;;;4.28;3.60;;;19.10;58.90;;;;;;5885513;24;20166;-87
2022/09/29 02:49:15;;;;;;;4.65;3.60;;;19.10;58.90;;;;;;5862539;24;20658;-86
2022/09/29 02:51:45;;;;;;;4.35;3.40;;;19.00;59.00;;;;;;5885147;24;20188;-86
2022/09/29 02:54:23;;;;;;;4.15;3.75;;;19.00;58.90;;;;;;5863499;24;20166;-86
2022/09/29 02:57:04;;;;;;;3.70;3.40;;;19.00;59.00;;;;;;5911069;24;20225;-86
2022/09/29 03:00:07;;;;;;;3.65;3.25;;;19.00;58.90;;;;;;5929613;24;20203;-86
2022/09/29 03:02:36;;;;;;;3.80;3.40;;;19.00;59.00;;;;;;5917558;24;20648;-86
2022/09/29 03:05:09;;;;;;;4.07;3.40;;;19.00;59.00;;;;;;5919526;24;20163;-86
2022/09/29 03:07:39;;;;;;;4.10;3.70;;;19.00;59.00;;;;;;6003486;23;20234;-86
2022/09/29 03:10:10;;;;;;;4.85;3.70;;;19.00;59.10;;;;;;6073651;23;20269;-87
2022/09/29 03:12:36;;;;;;;3.88;3.47;;;19.00;59.00;;;;;;6057939;23;20157;-87
2022/09/29 03:15:07;;;;;;;3.60;3.30;;;19.00;59.00;;;;;;6116237;23;20155;-86
2022/09/29 03:17:36;;;;;;;3.80;3.40;;;19.10;59.10;;;;;;6168701;23;20150;-86
2022/09/29 03:20:05;;;;;;;3.40;3.03;;;19.00;59.10;;;;;;6148970;23;20174;-86
2022/09/29 03:22:41;;;;;;;3.67;3.25;;;19.00;59.10;;;;;;6158510;23;20146;-86
2022/09/29 03:25:07;;;;;;;3.47;3.17;;;19.00;59.10;;;;;;6180288;23;20156;-87
2022/09/29 03:27:49;;;;;;;3.80;3.40;;;19.00;59.10;;;;;;6190925;23;20157;-87
2022/09/29 03:30:18;;;;;;;3.88;3.05;;;19.00;59.10;;;;;;6203765;23;20246;-86
2022/09/29 03:32:56;;;;;;;3.95;3.28;;;19.00;59.20;;;;;;6203008;23;20182;-86
2022/09/29 03:35:26;;;;;;;4.05;3.40;;;19.00;59.20;;;;;;6204061;23;20172;-86
2022/09/29 03:37:57;;;;;;;3.47;3.10;;;19.00;59.10;;;;;;6140277;23;20207;-87
2022/09/29 03:40:22;;;;;;;3.38;3.05;;;19.00;59.10;;;;;;6007105;23;20210;-86
2022/09/29 03:43:08;;;;;;;3.70;3.35;;;19.00;59.20;;;;;;6029596;23;20218;-86
2022/09/29 03:45:34;;;;;;;4.68;3.40;;;19.00;59.20;;;;;;6004734;23;20594;-87
2022/09/29 03:48:00;;;;;;;3.72;3.33;;;19.00;59.20;;;;;;6028696;23;20217;-87
2022/09/29 03:50:29;;;;;;;3.75;3.30;;;19.00;59.20;;;;;;6029075;23;20150;-86
2022/09/29 03:52:55;;;;;;;3.53;3.22;;;19.00;59.20;;;;;;6005521;23;20194;-87
2022/09/29 03:55:23;;;;;;;4.10;3.60;;;19.00;59.30;;;;;;6021340;23;20243;-86
2022/09/29 03:57:48;;;;;;;4.63;3.67;;;19.00;59.30;;;;;;6029450;23;20237;-86
2022/09/29 04:00:31;;;;;;;3.90;3.50;;;19.00;59.40;;;;;;6023382;23;20163;-86
2022/09/29 04:02:58;;;;;;;4.00;3.42;;;18.90;59.20;;;;;;6023405;23;20214;-86
2022/09/29 04:05:28;;;;;;;3.90;3.50;;;19.00;59.30;;;;;;5978710;23;20253;-86
2022/09/29 04:07:54;;;;;;;3.50;3.20;;;19.00;59.30;;;;;;5999107;23;20163;-86
2022/09/29 04:10:22;;;;;;;3.83;3.45;;;19.00;59.30;;;;;;6008571;23;20155;-86
2022/09/29 04:12:53;;;;;;;4.05;3.30;;;19.00;59.30;;;;;;6088207;23;20216;-86
2022/09/29 04:15:29;;;;;;;3.92;3.40;;;19.00;59.30;;;;;;6088469;23;20609;-87
2022/09/29 04:17:59;;;;;;;4.55;3.80;;;19.00;59.30;;;;;;6087927;23;20144;-86
2022/09/29 04:20:34;;;;;;;4.15;3.58;;;19.00;59.30;;;;;;6088520;23;20183;-86
2022/09/29 04:23:07;;;;;;;3.80;3.30;;;19.00;59.30;;;;;;6088998;23;20144;-86
2022/09/29 04:25:43;;;;;;;3.78;3.45;;;19.00;59.30;;;;;;6088497;23;20617;-87
2022/09/29 04:28:21;;;;;;;3.65;3.30;;;19.00;59.30;;;;;;6030906;23;20270;-86
2022/09/29 04:30:54;;;;;;;3.50;3.20;;;18.90;59.30;;;;;;6039681;23;20209;-87
2022/09/29 04:33:30;;;;;;;4.00;3.60;;;19.00;59.30;;;;;;6100634;23;20188;-86
2022/09/29 04:36:06;;;;;;;4.15;3.33;;;19.00;59.40;;;;;;6115847;23;20158;-86
2022/09/29 04:38:40;;;;;;;4.20;3.80;;;19.00;59.40;;;;;;6092734;23;20188;-86
2022/09/29 04:41:07;;;;;;;4.10;3.42;;;19.00;59.40;;;;;;6140634;23;20182;-87
2022/09/29 04:43:45;;;;;;;3.75;3.30;;;19.00;59.40;;;;;;6091352;23;20152;-87
2022/09/29 04:46:20;;;;;;;3.78;3.17;;;18.90;59.40;;;;;;6168874;23;20193;-86
2022/09/29 04:48:50;;;;;;;3.72;3.33;;;19.00;59.40;;;;;;6138648;23;20251;-86
2022/09/29 04:51:16;;;;;;;3.97;3.35;;;19.00;59.40;;;;;;6023274;23;20155;-87
2022/09/29 04:53:46;;;;;;;3.92;3.30;;;18.90;59.20;;;;;;5976981;23;20201;-87
2022/09/29 04:56:17;;;;;;;3.38;3.08;;;19.00;59.10;;;;;;5975885;23;20155;-87
2022/09/29 04:58:52;;;;;;;3.50;3.20;;;19.00;59.20;;;;;;5972995;23;20190;-87
2022/09/29 05:01:21;;;;;;;3.72;3.35;;;19.00;59.20;;;;;;5989384;23;20618;-86
2022/09/29 05:03:59;;;;;;;3.53;3.00;;;19.00;59.10;;;;;;5970895;24;20184;-87
2022/09/29 05:06:38;;;;;;;3.95;3.20;;;19.00;59.00;;;;;;5994217;23;20162;-86
2022/09/29 05:09:09;;;;;;;3.47;3.00;;;18.90;58.90;;;;;;5988782;23;20163;-87
2022/09/29 05:11:40;;;;;;;3.58;2.78;;;19.00;58.50;;;;;;5936987;24;20156;-87
2022/09/29 05:14:13;;;;;;;3.38;3.08;;;19.00;58.10;;;;;;5915954;24;20153;-86
2022/09/29 05:16:41;;;;;;;2.90;2.60;;;18.90;57.80;;;;;;5892716;24;20163;-87
2022/09/29 05:19:14;;;;;;;2.72;2.53;;;19.00;57.60;;;;;;5920947;24;20195;-86
2022/09/29 05:21:47;;;;;;;2.50;2.30;;;19.00;57.50;;;;;;5941918;24;20156;-87
2022/09/29 05:24:24;;;;;;;2.55;2.35;;;19.00;57.30;;;;;;5965510;24;20156;-86
2022/09/29 05:26:59;;;;;;;2.53;2.33;;;19.00;57.20;;;;;;5959417;24;20211;-85
2022/09/29 05:29:55;;;;;;;2.58;2.33;;;19.00;57.70;;;;;;5971659;24;20163;-86
2022/09/29 05:32:26;;;;;;;3.35;2.50;;;19.00;56.80;;;;;;5989761;23;20170;-87
2022/09/29 05:34:58;;;;;;;2.65;2.45;;;19.00;56.80;;;;;;6007191;23;20160;-87
2022/09/29 05:37:35;;;;;;;2.67;2.47;;;19.00;56.70;;;;;;6036032;23;20216;-87
2022/09/29 05:40:14;;;;;;;2.47;2.28;;;19.10;56.70;;;;;;6012062;23;20247;-87
2022/09/29 05:42:41;;;;;;;2.60;2.40;;;19.00;56.60;;;;;;6081673;23;20155;-87
2022/09/29 05:45:16;;;;;;;2.88;2.35;;;19.00;56.60;;;;;;6092878;23;20155;-87
2022/09/29 05:47:56;;;;;;;2.80;2.33;;;19.00;56.60;;;;;;6156573;23;20163;-86
2022/09/29 05:50:29;;;;;;;2.60;2.35;;;19.00;56.50;;;;;;6183434;23;20179;-86
2022/09/29 05:53:07;;;;;;;2.58;2.38;;;19.00;56.50;;;;;;6189240;23;20204;-87
2022/09/29 05:55:46;;;;;;;3.58;2.58;;;19.00;56.50;;;;;;6155953;23;20174;-87
2022/09/29 05:58:15;;;;;;;2.47;2.28;;;19.00;56.40;;;;;;6078138;23;20152;-87
2022/09/29 06:00:49;;;;;;;2.75;2.30;;;19.00;56.50;;;;;;6227519;23;20164;-87
2022/09/29 06:03:27;;;;;;;2.30;2.10;;;19.10;56.40;;;;;;6127829;23;20169;-87
2022/09/29 06:06:06;;;;;;;2.55;2.35;;;19.00;56.20;;;;;;6130488;23;20161;-87
2022/09/29 06:08:48;;;;;;;2.60;2.40;;;19.00;56.20;;;;;;6174255;23;20165;-86
2022/09/29 06:11:18;;;;;;;2.40;2.20;;;19.00;56.00;;;;;;6151920;23;20222;-86
2022/09/29 06:13:46;;;;;;;2.08;1.92;;;19.10;56.00;;;;;;6093054;23;20164;-87
2022/09/29 06:16:26;;;;;;;2.40;2.10;;;19.00;56.00;;;;;;6029480;23;20158;-86
2022/09/29 06:19:01;;;;;;;2.22;2.03;;;19.00;55.90;;;;;;6053132;23;20189;-86
2022/09/29 06:21:40;;;;;;;2.70;2.30;;;19.00;56.00;;;;;;6030728;23;20160;-87
2022/09/29 06:24:15;;;;;;;2.30;2.10;;;19.00;55.90;;;;;;6011159;23;20154;-87
2022/09/29 06:26:49;;;;;;;2.17;1.98;;;19.00;55.90;;;;;;6033172;23;20182;-86
2022/09/29 06:29:37;;;;;;;2.20;2.00;;;19.00;55.90;;;;;;6057759;23;20157;-86
2022/09/29 06:32:11;;;;;;;2.20;2.00;;;19.00;55.90;;;;;;6046212;23;20169;-86
2022/09/29 06:37:42;;;;;;;2.40;2.20;;;19.10;55.90;;;;;;6038063;23;20562;-87
2022/09/29 06:40:15;;;;;;;2.17;1.98;;;19.00;56.00;;;;;;6003144;23;20186;-86
2022/09/29 06:42:53;;;;;;;2.63;2.22;;;19.00;55.90;;;;;;6031502;23;20166;-86
2022/09/29 06:45:19;;;;;;;1.90;1.80;;;19.10;56.00;;;;;;6006600;23;20297;-86
2022/09/29 06:47:46;;;;;;;2.25;2.05;;;19.10;55.90;;;;;;6033779;23;20162;-86
2022/09/29 06:50:29;;;;;;;2.30;2.10;;;19.10;56.00;;;;;;6069090;23;20174;-86
2022/09/29 06:53:02;;;;;;;2.40;2.20;;;19.10;56.00;;;;;;6127547;23;20212;-86
2022/09/29 06:55:37;;;;;;;1.70;1.60;;;19.10;55.90;;;;;;6062899;23;20329;-87
2022/09/29 06:58:16;;;;;;;2.20;2.00;;;19.10;56.50;;;;;;6062962;23;20160;-86
2022/09/29 07:00:46;;;;;;;2.10;1.90;;;19.10;55.80;;;;;;6087657;23;20153;-86
2022/09/29 07:03:37;;;;;;;2.25;1.75;;;19.10;55.70;;;;;;6086487;23;20157;-87
2022/09/29 07:06:11;;;;;;;1.92;1.80;;;19.10;55.90;;;;;;6049459;23;20161;-86
2022/09/29 07:08:45;;;;;;;2.25;2.05;;;19.10;55.80;;;;;;6036303;23;20157;-86
2022/09/29 07:11:17;;;;;;;2.00;1.80;;;19.10;55.80;;;;;;6043163;23;20158;-86
2022/09/29 07:13:48;;;;;;;1.85;1.75;;;19.10;55.90;;;;;;6023709;23;20142;-86
2022/09/29 07:16:26;;;;;;;1.73;1.60;;;19.10;55.90;;;;;;6061167;23;20186;-86
2022/09/29 07:19:04;;;;;;;1.65;1.55;;;19.10;56.00;;;;;;5935438;23;20171;-87
2022/09/29 07:21:58;;;;;;;2.13;1.92;;;19.10;56.00;;;;;;6011693;23;20166;-85
2022/09/29 07:24:52;;;;;;;1.92;1.80;;;19.20;56.00;;;;;;5965564;23;20150;-85
2022/09/29 07:27:53;;;;;;;2.08;1.88;;;19.20;56.00;;;;;;5966220;23;20169;-86
2022/09/29 07:30:26;;;;;;;1.95;1.77;;;19.10;55.90;;;;;;6012468;23;20152;-86
2022/09/29 07:32:57;;;;;;;1.80;1.70;;;19.20;56.00;;;;;;6066336;23;20186;-86
2022/09/29 07:35:23;;;;;;;1.73;1.63;;;19.20;55.90;;;;;;6015546;23;20153;-85
2022/09/29 07:37:55;;;;;;;1.70;1.60;;;19.20;55.90;;;;;;5988870;24;20184;-86
2022/09/29 07:40:28;;;;;;;1.73;1.63;;;19.20;55.90;;;;;;5971017;23;20158;-85
2022/09/29 07:42:57;;;;;;;2.45;1.60;;;19.20;55.90;;;;;;6022965;23;20190;-85
2022/09/29 07:45:35;;;;;;;1.75;1.65;;;19.20;55.90;;;;;;5956363;24;20224;-86
2022/09/29 07:48:08;;;;;;;1.98;1.83;;;19.20;56.00;;;;;;5976938;23;20151;-85
2022/09/29 07:50:40;;;;;;;1.90;1.70;;;19.10;55.90;;;;;;5976894;23;20157;-86
2022/09/29 07:53:06;;;;;;;2.20;2.00;;;19.20;56.00;;;;;;5994131;23;20217;-85
2022/09/29 07:55:32;;;;;;;1.58;1.48;;;19.20;56.00;;;;;;5978132;23;20158;-85
2022/09/29 07:58:02;;;;;;;1.80;1.70;;;19.10;55.80;;;;;;6006603;23;20332;-84
2022/09/29 08:00:35;;;;;;;1.60;1.50;;;19.10;55.80;;;;;;6031455;23;20154;-85
2022/09/29 08:03:09;;;;;;;4.10;1.60;;;19.20;55.80;;;;;;5993903;24;20625;-85
2022/09/29 08:05:42;;;;;;;1.83;1.67;;;19.20;55.80;;;;;;5970956;24;20162;-86
2022/09/29 08:08:08;;;;;;;1.80;1.70;;;19.20;55.90;;;;;;5987059;23;20184;-85
2022/09/29 08:10:39;;;;;;;1.40;1.30;;;19.20;55.90;;;;;;6055117;23;20153;-85
2022/09/29 08:13:14;;;;;;;1.50;1.40;;;19.10;55.70;;;;;;6031402;23;20163;-85
2022/09/29 08:15:40;;;;;;;1.77;1.40;;;19.20;55.70;;;;;;6043294;23;20254;-85
2022/09/29 08:18:15;;;;;;;1.70;1.50;;;19.20;55.70;;;;;;6090950;23;20186;-84
2022/09/29 08:20:53;;;;;;;1.42;1.33;;;19.20;55.60;;;;;;6057816;23;20157;-84
2022/09/29 08:23:41;;;;;;;1.63;1.40;;;19.20;55.60;;;;;;6059445;23;20174;-84
2022/09/29 08:26:19;;;;;;;1.65;1.55;;;19.20;55.70;;;;;;6025538;23;20168;-86
2022/09/29 08:29:02;;;;;;;1.98;1.60;;;19.20;55.70;;;;;;6029077;23;20254;-84
2022/09/29 08:31:37;;;;;;;1.70;1.60;;;19.20;55.90;;;;;;6033397;23;20217;-85
2022/09/29 08:34:09;;;;;;;1.88;1.70;;;19.10;55.50;;;;;;6011306;23;20218;-85
2022/09/29 08:36:47;;;;;;;2.05;1.73;;;19.20;55.80;;;;;;6046320;23;20299;-85
2022/09/29 08:39:25;;;;;;;2.15;1.60;;;19.20;55.80;;;;;;6050954;23;20186;-85
2022/09/29 08:42:12;;;;;;;1.52;1.42;;;19.20;55.70;;;;;;6003669;23;20182;-85
2022/09/29 08:44:57;;;;;;;1.60;1.50;;;19.20;55.70;;;;;;6049951;23;20174;-85
2022/09/29 08:47:38;;;;;;;1.70;1.60;;;19.20;55.80;;;;;;6038457;23;20178;-85
2022/09/29 08:50:30;;;;;;;1.60;1.50;;;19.20;55.70;;;;;;5965209;24;20176;-85
2022/09/29 08:53:11;;;;;;;1.80;1.55;;;19.30;55.70;;;;;;5982399;24;20281;-85
2022/09/29 08:56:02;;;;;;;1.70;1.60;;;19.20;55.70;;;;;;5977219;24;20172;-85
2022/09/29 08:58:42;;;;;;;1.65;1.50;;;19.20;55.80;;;;;;6055804;23;20184;-85
2022/09/29 09:01:46;;;;;;;1.40;1.30;;;19.30;55.60;;;;;;5984180;23;20150;-85
2022/09/29 09:04:51;;;;;;;1.48;1.38;;;19.20;55.50;;;;;;6098572;23;20151;-85
2022/09/29 09:07:45;;;;;;;1.55;1.30;;;19.20;55.50;;;;;;6122978;23;20151;-85
2022/09/29 09:10:27;;;;;;;1.40;1.30;;;19.30;55.70;;;;;;6168488;23;20238;-85
2022/09/29 09:13:04;;;;;;;1.90;1.48;;;19.30;55.50;;;;;;6118171;23;20164;-85
2022/09/29 09:15:59;;;;;;;1.50;1.40;;;19.30;55.70;;;;;;6144440;23;20158;-85
2022/09/29 09:18:55;;;;;;;1.45;1.35;;;19.30;55.90;;;;;;6090290;23;20174;-85
2022/09/29 09:21:43;;;;;;;1.88;1.67;;;19.20;55.70;;;;;;6194955;22;20144;-85
2022/09/29 09:24:36;;;;;;;1.65;1.50;;;19.30;55.90;;;;;;6188887;23;20157;-85
2022/09/29 09:27:27;;;;;;;1.77;1.65;;;19.30;56.00;;;;;;6210331;23;20176;-85
2022/09/29 09:30:13;;;;;;;1.35;1.15;;;19.30;56.10;;;;;;6176431;23;20537;-85
2022/09/29 09:32:51;;;;;;;1.75;1.63;;;19.20;56.00;;;;;;6105061;23;20151;-85
2022/09/29 09:35:42;;;;;;;2.05;1.48;;;19.20;56.10;;;;;;6081351;23;20154;-86
2022/09/29 09:38:20;;;;;;;2.63;1.33;;;19.20;56.20;;;;;;6082675;23;20578;-84
2022/09/29 09:40:56;;;;;;;1.60;1.50;;;19.20;56.10;;;;;;6113467;23;20575;-85
2022/09/29 09:43:39;;;;;;;1.50;1.40;;;19.20;56.00;;;;;;6104695;23;20159;-84
2022/09/29 09:46:16;;;;;;;1.25;1.15;;;19.20;55.80;;;;;;6063518;23;20153;-84
2022/09/29 09:49:28;;;;;;;2.03;1.60;;;19.30;55.80;;;;;;6109413;23;20507;-85
2022/09/29 09:52:17;;;;;;;1.50;1.40;;;19.30;55.90;;;;;;6134672;23;20160;-85
2022/09/29 09:54:56;;;;;;;1.40;1.30;;;19.30;55.70;;;;;;6155472;23;20173;-84
2022/09/29 09:57:46;;;;;;;1.80;1.70;;;19.30;55.60;;;;;;6116597;23;20627;-84
2022/09/29 10:00:20;;;;;;;1.85;1.58;;;19.40;55.70;;;;;;6086295;23;20248;-84
2022/09/29 10:03:08;;;;;;;1.58;1.48;;;19.30;55.60;;;;;;6107088;23;20566;-85
2022/09/29 10:05:44;;;;;;;1.63;1.52;;;19.40;55.50;;;;;;6050081;23;20154;-85
2022/09/29 10:08:24;;;;;;;1.40;1.30;;;19.40;55.50;;;;;;5984162;23;20165;-84
2022/09/29 10:11:03;;;;;;;1.38;1.27;;;19.40;55.30;;;;;;6031616;23;20150;-84
2022/09/29 10:13:36;;;;;;;1.48;1.38;;;19.40;55.20;;;;;;5967348;23;20175;-85
2022/09/29 10:16:17;;;;;;;1.70;1.60;;;19.40;55.40;;;;;;6059066;23;20173;-85
2022/09/29 10:18:52;;;;;;;1.52;1.42;;;19.40;55.30;;;;;;6040082;23;20534;-84
2022/09/29 10:21:38;;;;;;;1.60;1.50;;;19.40;55.90;;;;;;6114746;23;20171;-85
2022/09/29 10:24:27;;;;;;;1.50;1.40;;;19.40;55.20;;;;;;6112180;23;20325;-85
2022/09/29 10:27:03;;;;;;;1.77;1.67;;;19.40;55.20;;;;;;6118301;23;20155;-85
2022/09/29 10:29:40;;;;;;;1.85;1.70;;;19.40;55.10;;;;;;6143681;23;20172;-84
2022/09/29 10:32:13;;;;;;;1.48;1.38;;;19.40;55.10;;;;;;6211056;23;20213;-85
2022/09/29 10:35:09;;;;;;;1.63;1.50;;;19.40;55.00;;;;;;6211322;23;20221;-85
2022/09/29 10:38:02;;;;;;;1.60;1.50;;;19.40;55.00;;;;;;6127571;23;20179;-85
2022/09/29 10:40:33;;;;;;;1.52;1.42;;;19.40;54.80;;;;;;6126349;23;20155;-85
2022/09/29 10:43:23;;;;;;;1.45;1.35;;;19.40;54.80;;;;;;6125369;23;20148;-85
2022/09/29 10:45:57;;;;;;;1.60;1.50;;;19.40;54.70;;;;;;6039247;23;20186;-85
2022/09/29 10:48:28;;;;;;;1.45;1.35;;;19.40;54.40;;;;;;6065743;23;20153;-86
2022/09/29 10:51:14;;;;;;;1.90;1.48;;;19.40;54.50;;;;;;6010637;23;20154;-86
2022/09/29 10:53:51;;;;;;;1.77;1.67;;;19.40;54.60;;;;;;5985942;23;20247;-86
2022/09/29 10:56:23;;;;;;;1.40;1.30;;;19.40;54.50;;;;;;6004419;23;20149;-86
2022/09/29 10:59:26;;;;;;;1.30;1.20;;;19.40;54.30;;;;;;6043438;23;20250;-86
2022/09/29 11:02:19;;;;;;;1.38;1.27;;;19.50;54.10;;;;;;6051570;23;20171;-86
2022/09/29 11:05:02;;;;;;;1.40;1.30;;;19.50;54.30;;;;;;6044719;23;20227;-86
2022/09/29 11:07:49;;;;;;;1.30;1.20;;;19.50;54.00;;;;;;6034597;23;20152;-87
2022/09/29 11:11:08;;;;;;;;;;;;;;;;;;;;;
2022/09/29 14:10:54;;;;;;;0.90;0.90;;;19.80;49.90;;;;;;6326971;22;20182;-84
2022/09/29 14:14:20;;;;;;;1.85;1.08;;;19.80;49.80;;;;;;6230405;23;20193;-85
2022/09/29 14:17:18;;;;;;;1.00;0.90;;;19.80;49.80;;;;;;6138565;23;20173;-85
2022/09/29 14:20:14;;;;;;;2.10;0.88;;;19.70;49.70;;;;;;6055212;23;20281;-86
2022/09/29 14:23:58;;;;;;;;;;;;;;;;;;;;;
2022/09/29 14:40:48;;;;;;;;;;;;;;;;;;;;;
2022/09/29 14:57:14;;;;;;;1.00;0.90;;;19.80;48.90;;;;;;6234942;23;20177;-84
2022/09/29 15:00:16;;;;;;;1.25;0.90;;;19.80;49.40;;;;;;6169357;23;20300;-85
2022/09/29 15:03:26;;;;;;;0.98;0.80;;;19.80;48.50;;;;;;6215143;23;20227;-86
2022/09/29 15:06:42;;;;;;;;;;;;;;;;;;;;;
2022/09/29 15:10:03;;;;;;;1.60;1.15;;;19.70;48.80;;;;;;6206134;23;20498;-85
2022/09/29 15:13:11;;;;;;;0.70;0.70;;;19.70;48.70;;;;;;6148947;23;20191;-82
2022/09/29 15:16:46;;;;;;;1.00;0.95;;;19.70;48.50;;;;;;6118878;23;20156;-83
2022/09/29 16:02:33;;;;;;;2.22;0.90;;;19.60;48.30;;;;;;6173904;23;20170;-85
2022/09/29 16:05:28;;;;;;;1.30;0.98;;;19.60;48.40;;;;;;6055240;23;20164;-85
2022/09/29 16:08:38;;;;;;;2.58;1.08;;;19.60;48.40;;;;;;6083926;23;20129;-85
2022/09/29 16:18:30;;;;;;;1.27;1.10;;;19.60;48.50;;;;;;6030429;23;20153;-84
2022/09/29 16:21:23;;;;;;;3.75;1.33;;;19.70;48.60;;;;;;5947621;24;20167;-86
2022/09/29 16:24:15;;;;;;;2.20;0.90;;;19.70;48.70;;;;;;5934201;24;20164;-86
2022/09/29 16:27:31;;;;;;;3.78;0.90;;;19.70;48.70;;;;;;5836344;24;20177;-88
2022/09/29 16:30:34;;;;;;;1.13;1.00;;;19.60;48.60;;;;;;5811147;24;20160;-86
2022/09/29 16:33:20;;;;;;;1.00;0.90;;;19.70;49.30;;;;;;5841254;24;20155;-85
2022/09/29 16:36:35;;;;;;;2.05;0.98;;;19.70;48.50;;;;;;5870822;24;20158;-88
2022/09/29 16:42:57;;;;;;;4.65;1.10;;;19.70;48.50;;;;;;5846397;24;20199;-84
2022/09/29 18:00:11;;;;;;;1.30;1.20;;;19.70;48.90;;;;;;6371481;22;20202;-88
2022/09/29 18:03:31;;;;;;;1.45;1.15;;;19.70;48.90;;;;;;6181968;23;20157;-88
2022/09/29 18:06:20;;;;;;;1.85;1.33;;;19.70;49.00;;;;;;6283785;22;20151;-84
2022/09/29 18:09:09;;;;;;;1.23;1.10;;;19.70;48.90;;;;;;6238691;22;20149;-86
2022/09/29 18:11:36;;;;;;;1.15;1.05;;;19.70;49.00;;;;;;6291365;22;20129;-86
2022/09/29 18:14:03;;;;;;;1.55;1.20;;;19.70;48.90;;;;;;6160131;22;20160;-87
2022/09/29 18:16:29;;;;;;;1.25;1.15;;;19.70;49.10;;;;;;6270297;22;20140;-86
2022/09/29 18:19:04;;;;;;;2.88;1.35;;;19.70;49.10;;;;;;6165026;22;20172;-85
2022/09/29 19:00:33;;;;;;;2.05;1.05;;;19.60;48.70;;;;;;6317865;22;20237;-84
2022/09/29 19:03:07;;;;;;;1.42;1.33;;;19.60;48.70;;;;;;6244584;22;20148;-84
2022/09/29 19:05:34;;;;;;;1.13;1.02;;;19.60;48.60;;;;;;6247089;22;20144;-83
2022/09/29 19:08:06;;;;;;;1.38;1.20;;;19.60;48.60;;;;;;6243900;22;20155;-84
2022/09/29 19:10:35;;;;;;;2.30;1.67;;;19.60;48.60;;;;;;6233994;23;20161;-84
2022/09/29 19:13:06;;;;;;;1.83;1.20;;;19.60;48.50;;;;;;6185257;23;20145;-85
2022/09/29 19:15:34;;;;;;;1.25;1.15;;;19.70;48.50;;;;;;6235460;23;20152;-85
2022/09/29 19:18:06;;;;;;;1.30;1.20;;;19.70;48.50;;;;;;6203314;23;20247;-86
2022/09/29 19:20:55;;;;;;;1.77;1.35;;;19.60;48.40;;;;;;6203503;23;20336;-85
2022/09/29 19:23:27;;;;;;;1.20;1.10;;;19.60;48.40;;;;;;6094308;23;20255;-85
2022/09/29 19:26:00;;;;;;;1.23;1.13;;;19.60;48.30;;;;;;6143749;23;20162;-84
2022/09/29 19:28:32;;;;;;;1.20;1.10;;;19.60;48.30;;;;;;6144388;23;20155;-84
2022/09/29 19:31:08;;;;;;;1.48;1.38;;;19.60;48.30;;;;;;6143846;23;20163;-84
2022/09/29 19:33:34;;;;;;;2.20;1.17;;;19.60;48.20;;;;;;6143908;23;20171;-84
2022/09/29 19:36:06;;;;;;;1.30;1.20;;;19.60;48.20;;;;;;6172730;23;20159;-85
2022/09/29 19:38:40;;;;;;;1.70;1.20;;;19.60;48.20;;;;;;6165773;23;20152;-85
2022/09/29 19:41:16;;;;;;;1.13;1.02;;;19.60;48.10;;;;;;6089615;23;20156;-84
2022/09/29 19:43:53;;;;;;;2.25;1.05;;;19.60;48.10;;;;;;6112687;23;20157;-85
2022/09/29 19:46:20;;;;;;;1.35;1.25;;;19.60;48.20;;;;;;6112045;23;20196;-86
2022/09/29 19:48:47;;;;;;;1.38;1.27;;;19.60;48.20;;;;;;6112477;23;20156;-86
2022/09/29 19:54:13;;;;;;;1.17;1.08;;;19.50;48.20;;;;;;6111722;23;20149;-86
2022/09/29 19:56:42;;;;;;;0.90;0.90;;;19.60;48.30;;;;;;6061037;23;20149;-86
2022/09/29 19:59:13;;;;;;;1.60;1.13;;;19.60;48.30;;;;;;6002851;23;20255;-86
2022/09/29 20:01:52;;;;;;;1.02;1.02;;;19.60;48.30;;;;;;6002216;23;20202;-85
2022/09/29 20:04:23;;;;;;;1.58;1.10;;;19.60;48.30;;;;;;6004084;23;20165;-86
2022/09/29 20:06:58;;;;;;;1.05;1.05;;;19.60;48.30;;;;;;5990399;23;20619;-86
2022/09/29 20:09:35;;;;;;;1.92;1.40;;;19.50;48.30;;;;;;6028732;23;20279;-86